Kamikawa Maru — JG5687 — position and weather

sailwx.info

Track history (hours):
 
Tides and Currents Weather Stations Pressure Air Temp Water Temp Dewpoint Dewpoint Depression Visibility Wind Speed Wind Dir Waves Ship Positions

Kamikawa Maru

Last reported at 2014-Jul-29 21:32 UTC. Time now 2014-Aug-01 12:00 UTC.
Position N 37°21' E 141°11'.

Length 162 m; draft 6.8 m.

Type: Cargo ship. MMSI: 431101012.

Date/timePositionNaut miles runAvg speedWind from/ knotsBaromVisibWave heightAir tempDewpointWater temp
2014-Jul-29 21:32N 37°21' E 141°11'4019.4
2014-Jul-29 19:29N 36°42' E 141°09'2019.4
2014-Jul-29 18:26N 36°22' E 141°04'1819.6
2014-Jul-29 17:32N 36°04' E 141°01'2519.6
2014-Jul-29 16:16N 35°40' E 140°56'1420.0
2014-Jul-29 15:33N 35°27' E 140°47'2120.8
2014-Jul-29 14:33N 35°11' E 140°31'2221.9
2014-Jul-29 13:33N 34°58' E 140°09'1918.8
2014-Jul-29 12:33N 34°53' E 139°47'1717.4
2014-Jul-29 11:33N 35°10' E 139°46'1313.5
2014-Jul-29 10:33N 35°23' E 139°42'1413.6
2014-Jul-29 09:33N 35°37' E 139°46'2 1.5
2014-Jul-29 08:31N 35°38' E 139°46'0 0.0
2014-Jul-29 07:31N 35°38' E 139°46'0 0.0
2014-Jul-29 06:31N 35°38' E 139°46'0 0.0
2014-Jul-29 05:31N 35°38' E 139°46'0 0.0
2014-Jul-29 04:28N 35°38' E 139°46'0 0.1
2014-Jul-29 03:31N 35°38' E 139°46'0 0.0
2014-Jul-29 02:31N 35°38' E 139°46'0 0.0
2014-Jul-29 01:31N 35°38' E 139°46'0 0.0
2014-Jul-29 00:31N 35°38' E 139°46'0 0.1
2014-Jul-28 23:33N 35°38' E 139°46'1010.6
2014-Jul-28 22:33N 35°28' E 139°51'1212.3
2014-Jul-28 21:33N 35°17' E 139°46'1414.3
2014-Jul-28 20:34N 35°03' E 139°42'1818.3
2014-Jul-28 19:33N 34°52' E 139°24'5517.1
2014-Jul-28 16:19N 34°27' E 138°23'50 1.5
2014-Jul-27 07:27N 34°50' E 139°18'1516.9
2014-Jul-27 06:33N 34°59' E 139°32'1717.1
2014-Jul-27 05:34N 35°12' E 139°46'1312.8
2014-Jul-27 04:34N 35°25' E 139°43'1312.5
2014-Jul-27 03:34N 35°37' E 139°46'1 1.1
2014-Jul-27 02:33N 35°38' E 139°46'0 0.0
2014-Jul-27 01:33N 35°38' E 139°46'0 0.0
2014-Jul-27 00:30N 35°38' E 139°46'0 0.1
2014-Jul-26 23:33N 35°38' E 139°46'1111.3
2014-Jul-26 22:34N 35°27' E 139°50'1211.5
2014-Jul-26 21:33N 35°16' E 139°46'1515.5
2014-Jul-26 20:33N 35°01' E 139°44'1313.0
2014-Jul-26 19:33N 34°54' E 139°58'1615.6
2014-Jul-26 18:32N 35°01' E 140°15'1615.6
2014-Jul-26 17:32N 35°11' E 140°31'1817.3
2014-Jul-26 16:29N 35°25' E 140°44'1617.7
2014-Jul-26 15:33N 35°39' E 140°54'1918.1
2014-Jul-26 14:31N 35°58' E 140°58'4719.2
2014-Jul-26 12:04N 36°44' E 141°04'  
2014-Jul-22 20:23N 36°45' E 141°08'1618.9
2014-Jul-22 19:33N 36°29' E 141°05'2019.2
2014-Jul-22 18:30N 36°09' E 141°03'1818.8
2014-Jul-22 17:33N 35°52' E 140°59'1918.6
2014-Jul-22 16:34N 35°34' E 140°51'1919.4
2014-Jul-22 15:34N 35°18' E 140°39'1919.1
2014-Jul-22 14:34N 35°05' E 140°22'2221.7
2014-Jul-22 13:33N 34°54' E 139°59'1515.3
2014-Jul-22 12:34N 35°03' E 139°44'1515.1
2014-Jul-22 11:33N 35°18' E 139°44'1211.8
2014-Jul-22 10:33N 35°29' E 139°50'10 9.4
2014-Jul-22 09:29N 35°38' E 139°46'0 0.0
2014-Jul-22 08:29N 35°38' E 139°46'0 0.0
2014-Jul-22 07:29N 35°38' E 139°46'0 0.1
2014-Jul-22 06:32N 35°38' E 139°46'0 0.0
2014-Jul-22 05:29N 35°38' E 139°46'0 0.0
2014-Jul-22 04:32N 35°38' E 139°46'0 0.0
2014-Jul-22 03:32N 35°38' E 139°46'0 0.0
2014-Jul-22 02:29N 35°38' E 139°46'0 0.0
2014-Jul-22 01:29N 35°38' E 139°46'0 0.0
2014-Jul-22 00:32N 35°38' E 139°46'0 0.1
2014-Jul-21 23:33N 35°38' E 139°46'1110.5
2014-Jul-21 22:33N 35°28' E 139°51'1312.5
2014-Jul-21 21:33N 35°17' E 139°46'1514.6
2014-Jul-21 20:34N 35°03' E 139°42'518.7
2014-Jul-21 20:18N 34°60' E 139°37'1418.5
2014-Jul-21 19:34N 34°51' E 139°23'4519.5
2014-Jul-21 17:14N 34°30' E 138°35'8 0.3
2014-Jul-20 10:04N 34°30' E 138°25'5916.7
2014-Jul-20 06:33N 34°58' E 139°28'1818.1
2014-Jul-20 05:33N 35°10' E 139°45'1313.3
2014-Jul-20 04:33N 35°23' E 139°42'1413.9
2014-Jul-20 03:33N 35°36' E 139°46'2 1.5
2014-Jul-20 02:31N 35°38' E 139°46'0 0.0
2014-Jul-20 01:31N 35°38' E 139°46'0 0.0
2014-Jul-20 00:13N 35°38' E 139°46'0 0.0
2014-Jul-19 23:31N 35°38' E 139°46'0 0.1
2014-Jul-19 22:33N 35°38' E 139°46'1111.2
2014-Jul-19 21:33N 35°27' E 139°50'  
Track history (hours):
 
Tides and Currents Weather Stations Pressure Air Temp Water Temp Dewpoint Dewpoint Depression Visibility Wind Speed Wind Dir Waves Ship Positions

Kamikawa Maru

Last reported at 2014-Jul-29 21:32 UTC. Time now 2014-Aug-01 12:00 UTC.
Position N 37°21' E 141°11'.

Length 162 m; draft 6.8 m.

Type: Cargo ship. MMSI: 431101012.

Date/timePositionNaut miles runAvg speedWind from/ knotsBaromVisibWave heightAir tempDewpointWater temp
2014-Jul-29 21:32N 37°21' E 141°11'4019.4
2014-Jul-29 19:29N 36°42' E 141°09'2019.4
2014-Jul-29 18:26N 36°22' E 141°04'1819.6
2014-Jul-29 17:32N 36°04' E 141°01'2519.6
2014-Jul-29 16:16N 35°40' E 140°56'1420.0
2014-Jul-29 15:33N 35°27' E 140°47'2120.8
2014-Jul-29 14:33N 35°11' E 140°31'2221.9
2014-Jul-29 13:33N 34°58' E 140°09'1918.8
2014-Jul-29 12:33N 34°53' E 139°47'1717.4
2014-Jul-29 11:33N 35°10' E 139°46'1313.5
2014-Jul-29 10:33N 35°23' E 139°42'1413.6
2014-Jul-29 09:33N 35°37' E 139°46'2 1.5
2014-Jul-29 08:31N 35°38' E 139°46'0 0.0
2014-Jul-29 07:31N 35°38' E 139°46'0 0.0
2014-Jul-29 06:31N 35°38' E 139°46'0 0.0
2014-Jul-29 05:31N 35°38' E 139°46'0 0.0
2014-Jul-29 04:28N 35°38' E 139°46'0 0.1
2014-Jul-29 03:31N 35°38' E 139°46'0 0.0
2014-Jul-29 02:31N 35°38' E 139°46'0 0.0
2014-Jul-29 01:31N 35°38' E 139°46'0 0.0
2014-Jul-29 00:31N 35°38' E 139°46'0 0.1
2014-Jul-28 23:33N 35°38' E 139°46'1010.6
2014-Jul-28 22:33N 35°28' E 139°51'1212.3
2014-Jul-28 21:33N 35°17' E 139°46'1414.3
2014-Jul-28 20:34N 35°03' E 139°42'1818.3
2014-Jul-28 19:33N 34°52' E 139°24'5517.1
2014-Jul-28 16:19N 34°27' E 138°23'50 1.5
2014-Jul-27 07:27N 34°50' E 139°18'1516.9
2014-Jul-27 06:33N 34°59' E 139°32'1717.1
2014-Jul-27 05:34N 35°12' E 139°46'1312.8
2014-Jul-27 04:34N 35°25' E 139°43'1312.5
2014-Jul-27 03:34N 35°37' E 139°46'1 1.1
2014-Jul-27 02:33N 35°38' E 139°46'0 0.0
2014-Jul-27 01:33N 35°38' E 139°46'0 0.0
2014-Jul-27 00:30N 35°38' E 139°46'0 0.1
2014-Jul-26 23:33N 35°38' E 139°46'1111.3
2014-Jul-26 22:34N 35°27' E 139°50'1211.5
2014-Jul-26 21:33N 35°16' E 139°46'1515.5
2014-Jul-26 20:33N 35°01' E 139°44'1313.0
2014-Jul-26 19:33N 34°54' E 139°58'1615.6
2014-Jul-26 18:32N 35°01' E 140°15'1615.6
2014-Jul-26 17:32N 35°11' E 140°31'1817.3
2014-Jul-26 16:29N 35°25' E 140°44'1617.7
2014-Jul-26 15:33N 35°39' E 140°54'1918.1
2014-Jul-26 14:31N 35°58' E 140°58'4719.2
2014-Jul-26 12:04N 36°44' E 141°04'  
2014-Jul-22 20:23N 36°45' E 141°08'1618.9
2014-Jul-22 19:33N 36°29' E 141°05'2019.2
2014-Jul-22 18:30N 36°09' E 141°03'1818.8
2014-Jul-22 17:33N 35°52' E 140°59'1918.6
2014-Jul-22 16:34N 35°34' E 140°51'1919.4
2014-Jul-22 15:34N 35°18' E 140°39'1919.1
2014-Jul-22 14:34N 35°05' E 140°22'2221.7
2014-Jul-22 13:33N 34°54' E 139°59'1515.3
2014-Jul-22 12:34N 35°03' E 139°44'1515.1
2014-Jul-22 11:33N 35°18' E 139°44'1211.8
2014-Jul-22 10:33N 35°29' E 139°50'10 9.4
2014-Jul-22 09:29N 35°38' E 139°46'0 0.0
2014-Jul-22 08:29N 35°38' E 139°46'0 0.0
2014-Jul-22 07:29N 35°38' E 139°46'0 0.1
2014-Jul-22 06:32N 35°38' E 139°46'0 0.0
2014-Jul-22 05:29N 35°38' E 139°46'0 0.0
2014-Jul-22 04:32N 35°38' E 139°46'0 0.0
2014-Jul-22 03:32N 35°38' E 139°46'0 0.0
2014-Jul-22 02:29N 35°38' E 139°46'0 0.0
2014-Jul-22 01:29N 35°38' E 139°46'0 0.0
2014-Jul-22 00:32N 35°38' E 139°46'0 0.1
2014-Jul-21 23:33N 35°38' E 139°46'1110.5
2014-Jul-21 22:33N 35°28' E 139°51'1312.5
2014-Jul-21 21:33N 35°17' E 139°46'1514.6
2014-Jul-21 20:34N 35°03' E 139°42'518.7
2014-Jul-21 20:18N 34°60' E 139°37'1418.5
2014-Jul-21 19:34N 34°51' E 139°23'4519.5
2014-Jul-21 17:14N 34°30' E 138°35'8 0.3
2014-Jul-20 10:04N 34°30' E 138°25'5916.7
2014-Jul-20 06:33N 34°58' E 139°28'1818.1
2014-Jul-20 05:33N 35°10' E 139°45'1313.3
2014-Jul-20 04:33N 35°23' E 139°42'1413.9
2014-Jul-20 03:33N 35°36' E 139°46'2 1.5
2014-Jul-20 02:31N 35°38' E 139°46'0 0.0
2014-Jul-20 01:31N 35°38' E 139°46'0 0.0
2014-Jul-20 00:13N 35°38' E 139°46'0 0.0
2014-Jul-19 23:31N 35°38' E 139°46'0 0.1
2014-Jul-19 22:33N 35°38' E 139°46'1111.2
2014-Jul-19 21:33N 35°27' E 139°50'  

Dump ship's entire track history